Time;durP1;ratioP1;P1;durP2;ratioP2;P2;SDS_P1;SDS_P2;PMS_P1;PMS_P2;Temp;Humidity;BMP_temperature;BMP_pressure;BME280_temperature;BME280_humidity;BME280_pressure;Samples;Min_cycle;Max_cycle;Signal;HPM_P1;HPM_P2
2021/09/03 06:09:20;;;;;;;;;;;;;;;;;;4990557;28;63823;-60
2021/09/03 06:11:48;;;;;;;;;;;;;;;;;;5030665;28;1213;-60
2021/09/03 06:14:16;;;;;;;;;;;;;;;;;;5030190;28;841;-60
2021/09/03 06:22:24;;;;;;;;;;;29.80;41.50;;;;;;5069965;27;59572;-55
2021/09/03 06:24:51;;;;;;;;;;;28.90;41.60;;;;;;5059289;28;10703;-64
2021/09/03 06:27:19;;;;;;;;;;;28.40;43.10;;;;;;5050274;28;1239;-67
2021/09/03 06:29:47;;;;;;;;;;;27.90;43.70;;;;;;5082622;28;1652;-78
2021/09/03 06:32:15;;;;;;;;;;;27.60;44.10;;;;;;5050585;28;1336;-77
2021/09/03 06:34:48;;;;;;;;;;;27.50;44.30;;;;;;5050306;28;928;-75
2021/09/03 06:37:16;;;;;;;;;;;27.50;44.40;;;;;;5050250;28;1358;-77
2021/09/03 06:39:45;;;;;;;;;;;27.50;44.30;;;;;;5050303;28;853;-80
2021/09/03 06:42:12;;;;;;;;;;;27.50;44.50;;;;;;5050292;28;1982;-79
2021/09/03 06:44:40;;;;;;;;;;;27.50;44.30;;;;;;5046078;28;10919;-66
2021/09/03 06:47:11;;;;;;;;;;;27.50;44.30;;;;;;5049621;28;1307;-76
2021/09/03 06:49:38;;;;;;;;;;;27.50;44.20;;;;;;5081965;28;1476;-76
2021/09/03 06:52:07;;;;;;;;;;;27.50;44.30;;;;;;5048570;28;1458;-76
2021/09/03 06:54:34;;;;;;;;;;;27.50;44.30;;;;;;5049945;28;832;-82
2021/09/03 06:57:04;;;;;;;;;;;27.60;44.90;;;;;;5049354;28;1287;-80
2021/09/03 06:59:31;;;;;;;;;;;27.60;44.30;;;;;;5049708;28;856;-81
2021/09/03 07:02:00;;;;;;;;;;;27.60;44.30;;;;;;5049448;28;1909;-79
2021/09/03 07:04:28;;;;;;;;;;;27.60;44.80;;;;;;5049809;28;880;-67
2021/09/03 07:06:56;;;;;;;;;;;27.60;44.10;;;;;;5049491;28;1341;-72
2021/09/03 07:09:23;;;;;;;;;;;27.70;44.60;;;;;;5042765;28;60398;-74
2021/09/03 07:11:50;;;;;;;;;;;27.70;44.30;;;;;;5069074;28;1274;-60
2021/09/03 07:14:20;;;;;;;;;;;27.70;44.20;;;;;;5069292;28;887;-59
2021/09/03 07:16:47;;;;;;;;;;;27.70;44.10;;;;;;5069418;28;1275;-67
2021/09/03 07:19:15;;;;;;;;;;;27.70;43.90;;;;;;5069107;28;825;-62
2021/09/03 07:28:27;;;;;;;;;;;27.40;37.90;;;;;;5110223;27;1338;-69
2021/09/03 07:30:54;;;;;;;;;;;27.00;37.40;;;;;;5073475;28;76469;-68
2021/09/03 07:33:22;;;;;;;;;;;26.80;38.50;;;;;;5068389;28;1404;-66
2021/09/03 07:35:49;;;;;;;;;;;26.70;37.70;;;;;;5078695;28;56986;-70
2021/09/03 07:41:01;;;;;;;;;;;26.60;38.30;;;;;;4928083;28;13189;-67
2021/09/03 07:43:30;;;;;;;;;;;26.50;36.40;;;;;;5031070;28;77451;-66
2021/09/03 07:46:01;;;;;;;;;;;26.40;36.30;;;;;;5049487;28;810;-71
2021/09/03 07:48:31;;;;;;;;;;;26.30;35.70;;;;;;5049692;28;1306;-68
2021/09/03 07:51:00;;;;;;;;;;;26.30;36.60;;;;;;5049964;28;872;-68
2021/09/03 07:53:29;;;;;;;;;;;26.30;38.20;;;;;;5049897;28;1201;-67
2021/09/03 07:56:00;;;;;;;;;;;26.40;38.10;;;;;;5049814;28;932;-67
2021/09/03 07:58:29;;;;;;;;;;;26.40;38.20;;;;;;5049415;28;1302;-67
2021/09/03 08:00:59;;;;;;;;;;;26.40;37.90;;;;;;5049579;28;1917;-68
2021/09/03 08:03:29;;;;;;;;;;;26.50;37.80;;;;;;5049512;28;1420;-69
2021/09/03 08:05:58;;;;;;;;;;;26.60;36.90;;;;;;5048909;28;10780;-68
2021/09/03 08:08:28;;;;;;;;;;;26.50;35.70;;;;;;5049464;28;1225;-68
2021/09/03 08:10:57;;;;;;;;;;;26.40;35.60;;;;;;5046527;28;55072;-68
2021/09/03 08:13:27;;;;;;;;;;;26.40;34.80;;;;;;5049305;28;1232;-69
2021/09/03 08:15:57;;;;;;;;;;;26.30;36.90;;;;;;5043576;28;55535;-68
2021/09/03 08:18:27;;;;;;;;;;;26.30;37.20;;;;;;5048871;28;1371;-68
2021/09/03 08:20:56;;;;;;;;;;;26.30;37.30;;;;;;5048911;28;1983;-67
2021/09/03 08:23:27;;;;;;;;;;;26.30;37.50;;;;;;5048931;28;1296;-68
2021/09/03 08:25:56;;;;;;;;;;;26.40;37.20;;;;;;5033733;28;11706;-68
2021/09/03 08:28:27;;;;;;;;;;;26.40;37.30;;;;;;5028879;28;1292;-68
2021/09/03 08:30:57;;;;;;;;;;;26.50;36.60;;;;;;5028982;28;762;-68
2021/09/03 08:33:29;;;;;;;;;;;26.50;36.60;;;;;;5029131;28;1435;-68
2021/09/03 08:36:00;;;;;;;;;;;26.60;35.90;;;;;;5028550;28;913;-70
2021/09/03 08:38:29;;;;;;;;;;;26.50;35.00;;;;;;5035948;28;10628;-66
2021/09/03 08:44:15;;;;;;;;;;;26.40;34.50;;;;;;5048465;28;1284;-67
2021/09/03 08:47:00;;;;;;;;;;;26.30;36.10;;;;;;5048576;28;1240;-67
2021/09/03 08:53:04;;;;;;;;;;;26.40;36.90;;;;;;5035612;28;1259;-71
2021/09/03 08:55:33;;;;;;;;;;;26.50;35.50;;;;;;5051110;28;1165;-72
2021/09/03 08:58:02;;;;;;;;;;;26.50;35.40;;;;;;5034162;28;1372;-72
2021/09/03 09:00:35;;;;;;;;;;;26.40;34.90;;;;;;5035992;28;1922;-71
2021/09/03 09:03:05;;;;;;;;;;;26.40;34.80;;;;;;5035575;28;1255;-72
2021/09/03 09:05:50;;;;;;;;;;;26.30;36.30;;;;;;5035785;28;1182;-72
2021/09/03 09:08:20;;;;;;;;;;;26.40;36.30;;;;;;5035043;28;1374;-74
2021/09/03 09:10:49;;;;;;;;;;;26.40;36.40;;;;;;5035764;28;1203;-69
2021/09/03 09:13:19;;;;;;;;;;;26.40;35.60;;;;;;5035080;28;1279;-69
2021/09/03 09:15:59;;;;;;;;;;;26.50;35.20;;;;;;5035653;28;931;-70
2021/09/03 09:18:35;;;;;;;;;;;26.40;34.30;;;;;;5035025;28;1338;-69
2021/09/03 09:21:07;;;;;;;;;;;26.30;34.70;;;;;;5035244;28;1931;-70
2021/09/03 09:23:40;;;;;;;;;;;26.30;36.00;;;;;;5035314;28;938;-68
2021/09/03 09:26:09;;;;;;;;;;;26.40;35.20;;;;;;5035036;28;1322;-71
2021/09/03 09:28:38;;;;;;;;;;;26.40;34.60;;;;;;5035046;28;1168;-73
2021/09/03 09:31:08;;;;;;;;;;;26.40;34.40;;;;;;5034983;28;834;-68
2021/09/03 09:33:38;;;;;;;;;;;26.40;35.80;;;;;;5035090;28;1109;-70
2021/09/03 09:36:07;;;;;;;;;;;26.50;34.50;;;;;;5035009;28;947;-68
2021/09/03 09:40:49;;;;;;;;;;;26.60;34.20;;;;;;5110863;27;1539;-68
2021/09/03 09:43:28;;;;;;;;;;;26.40;34.70;;;;;;5088652;27;10733;-69
2021/09/03 09:46:10;;;;;;;;;;;26.10;34.00;;;;;;5090436;28;876;-68
2021/09/03 09:48:54;;;;;;;;;;;26.20;35.80;;;;;;5090041;28;984;-68
2021/09/03 09:51:22;;;;;;;;;;;26.10;33.90;;;;;;5090424;28;1270;-68
2021/09/03 09:53:55;;;;;;;;;;;26.20;34.80;;;;;;5090049;28;933;-69
2021/09/03 09:56:25;;;;;;;;;;;26.10;33.90;;;;;;5090067;28;1301;-70
2021/09/03 09:58:55;;;;;;;;;;;26.30;35.30;;;;;;5089967;28;1925;-70
2021/09/03 10:01:24;;;;;;;;;;;26.30;33.10;;;;;;5090047;28;1316;-70
2021/09/03 10:03:53;;;;;;;;;;;26.20;34.10;;;;;;5089638;28;1161;-70
2021/09/03 10:06:22;;;;;;;;;;;26.10;33.50;;;;;;5089923;28;1217;-68
2021/09/03 10:08:52;;;;;;;;;;;26.20;33.70;;;;;;5089998;28;987;-68
2021/09/03 10:11:21;;;;;;;;;;;25.90;33.60;;;;;;5089957;28;1309;-70
2021/09/03 10:13:53;;;;;;;;;;;26.20;35.30;;;;;;5088611;28;1278;-69
2021/09/03 10:16:23;;;;;;;;;;;26.30;33.10;;;;;;5089304;28;1245;-68
2021/09/03 10:18:55;;;;;;;;;;;26.30;34.70;;;;;;5089048;28;1984;-70
2021/09/03 10:21:24;;;;;;;;;;;26.50;33.10;;;;;;5088016;28;1383;-69
2021/09/03 10:23:56;;;;;;;;;;;26.30;33.80;;;;;;5089943;28;1148;-70
2021/09/03 10:26:27;;;;;;;;;;;26.40;32.80;;;;;;5089231;28;1267;-69
2021/09/03 10:29:23;;;;;;;;;;;26.20;33.50;;;;;;5089176;28;1155;-70
2021/09/03 10:32:25;;;;;;;;;;;26.30;32.70;;;;;;5053191;28;1327;-69
2021/09/03 10:34:59;;;;;;;;;;;26.30;33.20;;;;;;5089236;28;955;-68
2021/09/03 10:37:35;;;;;;;;;;;26.10;33.00;;;;;;5088871;28;1360;-70
2021/09/03 10:40:09;;;;;;;;;;;26.20;33.00;;;;;;5088580;28;1921;-68
2021/09/03 10:42:45;;;;;;;;;;;26.00;33.30;;;;;;5089021;28;1301;-72
2021/09/03 10:45:21;;;;;;;;;;;26.30;32.90;;;;;;5089694;28;1124;-68
2021/09/03 10:47:51;;;;;;;;;;;26.10;33.10;;;;;;5089094;28;1248;-71
2021/09/03 10:50:23;;;;;;;;;;;26.30;32.70;;;;;;5085991;28;1152;-70
2021/09/03 10:53:11;;;;;;;;;;;26.00;33.60;;;;;;5075560;28;1362;-71
2021/09/03 10:55:49;;;;;;;;;;;26.50;34.60;;;;;;5075826;28;1290;-68
2021/09/03 10:58:37;;;;;;;;;;;26.40;33.30;;;;;;5075281;28;1306;-70
2021/09/03 11:01:26;;;;;;;;;;;26.60;33.80;;;;;;5075009;28;1956;-70
2021/09/03 11:03:56;;;;;;;;;;;26.60;31.80;;;;;;5075178;28;1136;-70
2021/09/03 11:06:30;;;;;;;;;;;26.60;32.80;;;;;;5075167;28;1232;-72
2021/09/03 11:09:00;;;;;;;;;;;26.50;31.90;;;;;;5075461;28;1038;-71
2021/09/03 11:11:28;;;;;;;;;;;26.50;32.70;;;;;;5075158;28;1314;-71
2021/09/03 11:14:02;;;;;;;;;;;26.50;32.00;;;;;;5075185;28;1459;-69
2021/09/03 11:16:32;;;;;;;;;;;26.50;33.30;;;;;;5075425;28;1214;-70
2021/09/03 11:19:02;;;;;;;;;;;26.90;32.20;;;;;;5075338;28;1244;-70
2021/09/03 11:21:33;;;;;;;;;;;26.50;32.70;;;;;;5075098;28;1917;-69
2021/09/03 11:24:02;;;;;;;;;;;26.60;32.40;;;;;;5075043;28;1148;-71
2021/09/03 11:26:32;;;;;;;;;;;26.20;32.00;;;;;;5075015;28;1235;-71
2021/09/03 11:29:03;;;;;;;;;;;26.50;33.10;;;;;;5075030;28;1179;-71
2021/09/03 11:31:33;;;;;;;;;;;26.60;31.60;;;;;;5074979;28;1363;-71
2021/09/03 11:34:08;;;;;;;;;;;26.50;32.60;;;;;;5074827;28;1237;-71
2021/09/03 11:36:48;;;;;;;;;;;26.50;31.80;;;;;;5073361;28;2436;-71
2021/09/03 11:39:17;;;;;;;;;;;26.30;32.60;;;;;;5074634;28;1144;-70
2021/09/03 11:41:50;;;;;;;;;;;26.60;32.20;;;;;;5073405;28;1914;-70
2021/09/03 11:44:19;;;;;;;;;;;26.50;32.20;;;;;;5074753;28;1273;-70
2021/09/03 11:46:48;;;;;;;;;;;26.50;31.90;;;;;;5074543;28;1298;-71
2021/09/03 11:49:20;;;;;;;;;;;26.20;32.60;;;;;;5074605;28;1151;-68
2021/09/03 11:51:50;;;;;;;;;;;26.30;32.40;;;;;;5074875;28;1256;-68
2021/09/03 11:54:19;;;;;;;;;;;26.00;32.80;;;;;;5074771;28;1166;-68
2021/09/03 11:56:56;;;;;;;;;;;26.50;32.50;;;;;;5074310;28;1298;-69
2021/09/03 11:59:25;;;;;;;;;;;26.30;32.40;;;;;;5074675;28;925;-70
2021/09/03 12:02:04;;;;;;;;;;;26.30;32.30;;;;;;5073744;28;1975;-68
2021/09/03 12:04:33;;;;;;;;;;;26.10;32.40;;;;;;5074379;28;1186;-69
2021/09/03 12:07:04;;;;;;;;;;;26.50;32.20;;;;;;5074169;28;1235;-68
2021/09/03 12:09:34;;;;;;;;;;;26.50;31.40;;;;;;5074466;28;1200;-69
2021/09/03 12:12:05;;;;;;;;;;;26.50;32.00;;;;;;5074151;28;1299;-69
2021/09/03 12:14:34;;;;;;;;;;;26.30;31.80;;;;;;5074216;28;1148;-70
2021/09/03 12:17:03;;;;;;;;;;;26.40;32.30;;;;;;5074045;28;1230;-71
2021/09/03 12:19:38;;;;;;;;;;;26.40;31.60;;;;;;5074361;28;1242;-71
2021/09/03 12:22:17;;;;;;;;;;;26.40;32.70;;;;;;5073827;28;1917;-69
2021/09/03 12:24:50;;;;;;;;;;;26.80;31.30;;;;;;5074280;28;1139;-71
2021/09/03 12:27:19;;;;;;;;;;;26.50;32.20;;;;;;5074028;28;1286;-69
2021/09/03 12:29:48;;;;;;;;;;;26.50;31.80;;;;;;5074299;28;917;-72
2021/09/03 12:32:18;;;;;;;;;;;26.20;32.50;;;;;;5073795;28;1330;-70
2021/09/03 12:34:46;;;;;;;;;;;26.50;32.10;;;;;;5073857;28;2469;-68
2021/09/03 12:37:17;;;;;;;;;;;26.30;32.40;;;;;;5073700;28;1263;-69
2021/09/03 12:39:48;;;;;;;;;;;26.50;32.30;;;;;;5073141;28;1648;-70
2021/09/03 12:42:18;;;;;;;;;;;26.40;31.10;;;;;;5073620;28;1977;-69
2021/09/03 12:44:46;;;;;;;;;;;26.40;32.20;;;;;;5073728;28;1239;-71
2021/09/03 12:47:16;;;;;;;;;;;26.30;31.80;;;;;;5073278;28;1661;-70
2021/09/03 12:49:45;;;;;;;;;;;26.30;32.20;;;;;;5073460;28;1227;-69
2021/09/03 12:52:15;;;;;;;;;;;26.00;31.50;;;;;;5073132;28;1233;-69
2021/09/03 12:54:45;;;;;;;;;;;26.20;32.90;;;;;;5073534;28;1132;-69
2021/09/03 12:57:16;;;;;;;;;;;26.40;31.40;;;;;;5073260;28;1280;-70
2021/09/03 12:59:45;;;;;;;;;;;26.50;32.00;;;;;;5073589;28;1215;-71
2021/09/03 13:02:15;;;;;;;;;;;26.40;31.30;;;;;;5073109;28;1898;-68
2021/09/03 13:04:44;;;;;;;;;;;26.40;32.20;;;;;;5073545;28;961;-69
2021/09/03 13:07:13;;;;;;;;;;;26.20;31.60;;;;;;5073154;28;1227;-69
2021/09/03 13:09:42;;;;;;;;;;;26.20;32.70;;;;;;5073480;28;1140;-70
2021/09/03 13:12:14;;;;;;;;;;;26.60;31.60;;;;;;5073093;28;1306;-71
2021/09/03 13:14:43;;;;;;;;;;;26.40;32.20;;;;;;5073476;28;1149;-69
2021/09/03 13:17:12;;;;;;;;;;;26.50;31.70;;;;;;5073276;28;1233;-69
2021/09/03 13:19:45;;;;;;;;;;;26.30;31.80;;;;;;5073264;28;1249;-69
2021/09/03 13:22:14;;;;;;;;;;;26.40;32.30;;;;;;5073285;28;1926;-70
2021/09/03 13:24:43;;;;;;;;;;;26.40;31.10;;;;;;5073395;28;1281;-69
2021/09/03 13:27:13;;;;;;;;;;;26.40;32.40;;;;;;5072939;28;1324;-69
2021/09/03 13:29:42;;;;;;;;;;;26.50;31.10;;;;;;5060253;28;10612;-72
